Time;durP1;ratioP1;P1;durP2;ratioP2;P2;SDS_P1;SDS_P2;PMS_P1;PMS_P2;Temp;Humidity;BMP_temperature;BMP_pressure;BME280_temperature;BME280_humidity;BME280_pressure;Samples;Min_cycle;Max_cycle;Signal;HPM_P1;HPM_P2
2021/09/01 00:00:32;;;;;;;14.05;4.47;;;;;;;;;;5091833;28;20052;-63
2021/09/01 00:03:18;;;;;;;16.17;5.32;;;;;;;;;;5092555;28;20123;-64
2021/09/01 00:06:05;;;;;;;14.55;4.72;;;;;;;;;;5095948;28;20056;-63
2021/09/01 00:08:50;;;;;;;14.90;4.75;;;;;;;;;;5095788;28;20052;-63
2021/09/01 00:11:36;;;;;;;15.68;5.05;;;;;;;;;;5095474;28;20056;-64
2021/09/01 00:14:22;;;;;;;13.93;5.43;;;;;;;;;;5095452;28;20048;-63
2021/09/01 00:17:07;;;;;;;16.20;5.05;;;;;;;;;;5095631;28;20056;-63
2021/09/01 00:19:53;;;;;;;14.85;4.95;;;;;;;;;;5095465;28;20047;-62
2021/09/01 00:22:38;;;;;;;16.35;5.28;;;;;;;;;;5095640;28;20127;-63
2021/09/01 00:25:23;;;;;;;10.02;3.97;;;;;;;;;;5095257;28;20172;-63
2021/09/01 00:28:09;;;;;;;23.23;5.65;;;;;;;;;;5095298;28;20056;-63
2021/09/01 00:30:54;;;;;;;20.80;4.78;;;;;;;;;;5095412;28;20056;-63
2021/09/01 00:33:39;;;;;;;19.08;5.30;;;;;;;;;;5095018;28;20052;-63
2021/09/01 00:36:24;;;;;;;17.70;5.00;;;;;;;;;;5095243;28;20048;-63
2021/09/01 00:39:10;;;;;;;16.10;5.45;;;;;;;;;;5095345;28;20048;-63
2021/09/01 00:41:55;;;;;;;17.20;5.35;;;;;;;;;;5094903;28;20506;-63
2021/09/01 00:44:40;;;;;;;17.08;5.13;;;;;;;;;;5094813;28;20056;-63
2021/09/01 00:47:26;;;;;;;10.68;4.85;;;;;;;;;;5095198;28;20085;-64
2021/09/01 00:50:11;;;;;;;17.23;4.72;;;;;;;;;;5094802;28;20056;-64
2021/09/01 00:52:56;;;;;;;17.98;4.75;;;;;;;;;;5094842;28;20044;-63
2021/09/01 00:55:44;;;;;;;15.80;5.50;;;;;;;;;;5094720;28;20048;-63
2021/09/01 00:58:34;;;;;;;18.73;5.22;;;;;;;;;;5094730;28;20044;-64
2021/09/01 01:01:20;;;;;;;15.52;5.03;;;;;;;;;;5093740;28;20044;-63
2021/09/01 01:04:06;;;;;;;11.60;5.07;;;;;;;;;;5094619;28;20059;-63
2021/09/01 01:06:51;;;;;;;16.83;5.85;;;;;;;;;;5094729;28;20055;-63
2021/09/01 01:09:37;;;;;;;15.60;5.75;;;;;;;;;;5094490;28;20498;-63
2021/09/01 01:12:22;;;;;;;15.93;5.28;;;;;;;;;;5094724;28;20127;-63
2021/09/01 01:15:07;;;;;;;17.42;5.53;;;;;;;;;;5093272;28;20052;-63
2021/09/01 01:17:53;;;;;;;15.27;5.15;;;;;;;;;;5094462;28;20052;-63
2021/09/01 01:20:38;;;;;;;11.75;5.07;;;;;;;;;;5094301;28;20127;-63
2021/09/01 01:23:24;;;;;;;16.55;6.07;;;;;;;;;;5094329;28;20048;-63
2021/09/01 01:26:09;;;;;;;14.68;5.38;;;;;;;;;;5094269;28;20056;-63
2021/09/01 01:28:59;;;;;;;18.30;6.65;;;;;;;;;;5094174;28;20119;-63
2021/09/01 01:31:44;;;;;;;15.95;4.65;;;;;;;;;;5094020;28;20047;-63
2021/09/01 01:34:29;;;;;;;16.52;5.78;;;;;;;;;;5093822;28;20051;-63
2021/09/01 01:37:14;;;;;;;15.65;5.75;;;;;;;;;;5093949;28;20506;-63
2021/09/01 01:39:59;;;;;;;12.95;5.63;;;;;;;;;;5093984;28;20119;-63
2021/09/01 01:42:45;;;;;;;13.32;5.50;;;;;;;;;;5093991;28;20052;-63
2021/09/01 01:45:31;;;;;;;16.15;5.55;;;;;;;;;;5093548;28;20056;-63
2021/09/01 01:48:17;;;;;;;15.52;5.50;;;;;;;;;;5094097;28;20076;-63
2021/09/01 01:51:02;;;;;;;14.60;5.60;;;;;;;;;;5093607;28;20043;-63
2021/09/01 01:53:47;;;;;;;17.90;5.60;;;;;;;;;;5093275;28;20040;-63
2021/09/01 01:56:33;;;;;;;16.25;6.38;;;;;;;;;;5093817;28;20127;-63
2021/09/01 01:59:18;;;;;;;13.25;5.28;;;;;;;;;;5093704;28;20040;-63
2021/09/01 02:02:03;;;;;;;15.77;5.78;;;;;;;;;;5093424;28;20048;-63
2021/09/01 02:04:48;;;;;;;19.65;5.63;;;;;;;;;;5093357;28;20056;-64
2021/09/01 02:07:34;;;;;;;16.50;5.82;;;;;;;;;;5093563;28;20052;-63
2021/09/01 02:10:19;;;;;;;16.85;5.93;;;;;;;;;;5093123;28;20509;-63
2021/09/01 02:13:04;;;;;;;18.10;5.90;;;;;;;;;;5093386;28;20460;-64
2021/09/01 02:15:50;;;;;;;16.42;5.20;;;;;;;;;;5093237;28;20052;-63
2021/09/01 02:18:35;;;;;;;14.85;5.35;;;;;;;;;;5093243;28;20055;-63
2021/09/01 02:21:20;;;;;;;15.30;5.25;;;;;;;;;;5093260;28;20052;-63
2021/09/01 02:24:06;;;;;;;17.98;6.10;;;;;;;;;;5092543;28;20052;-63
2021/09/01 02:26:51;;;;;;;18.02;6.10;;;;;;;;;;5091706;28;20052;-63
2021/09/01 02:29:36;;;;;;;14.35;5.63;;;;;;;;;;5093056;28;20048;-63
2021/09/01 02:32:22;;;;;;;13.43;5.15;;;;;;;;;;5092934;28;20510;-63
2021/09/01 02:35:08;;;;;;;13.65;5.47;;;;;;;;;;5092750;28;20098;-63
2021/09/01 02:37:53;;;;;;;14.32;5.40;;;;;;;;;;5093047;28;20047;-64
2021/09/01 02:40:38;;;;;;;13.60;5.30;;;;;;;;;;5092891;28;20052;-64
2021/09/01 02:43:23;;;;;;;12.93;5.40;;;;;;;;;;5092718;28;20056;-61
2021/09/01 02:46:08;;;;;;;14.13;4.93;;;;;;;;;;5092936;28;20052;-63
2021/09/01 02:48:54;;;;;;;14.45;5.63;;;;;;;;;;5092846;28;20119;-63
2021/09/01 02:51:39;;;;;;;15.55;5.22;;;;;;;;;;5134877;22;20056;-64
2021/09/01 02:54:24;;;;;;;16.33;5.70;;;;;;;;;;5092517;28;20052;-64
2021/09/01 02:57:10;;;;;;;11.73;5.32;;;;;;;;;;5092610;28;20052;-63
2021/09/01 02:59:55;;;;;;;15.55;5.93;;;;;;;;;;5092492;28;20056;-63
2021/09/01 03:02:40;;;;;;;12.32;5.05;;;;;;;;;;5092270;28;20505;-63
2021/09/01 03:05:26;;;;;;;14.20;4.90;;;;;;;;;;5092290;28;20139;-62
2021/09/01 03:08:11;;;;;;;18.77;5.43;;;;;;;;;;5092483;28;20101;-63
2021/09/01 03:10:56;;;;;;;22.73;5.75;;;;;;;;;;5092228;28;20129;-63
2021/09/01 03:13:43;;;;;;;12.70;4.65;;;;;;;;;;5091923;28;20501;-63
2021/09/01 03:16:28;;;;;;;14.98;5.38;;;;;;;;;;5092328;28;20048;-63
2021/09/01 03:19:13;;;;;;;16.42;5.07;;;;;;;;;;5092228;28;20409;-63
2021/09/01 03:21:58;;;;;;;16.70;5.70;;;;;;;;;;5092253;28;20123;-63
2021/09/01 03:24:44;;;;;;;12.48;5.15;;;;;;;;;;5092008;28;20097;-62
2021/09/01 03:27:29;;;;;;;14.43;5.20;;;;;;;;;;5092071;28;20056;-63
2021/09/01 03:30:14;;;;;;;15.10;5.60;;;;;;;;;;5092337;28;20134;-63
2021/09/01 03:33:00;;;;;;;15.88;5.22;;;;;;;;;;5092241;28;20079;-63
2021/09/01 03:35:45;;;;;;;11.48;4.78;;;;;;;;;;5091906;28;20438;-63
2021/09/01 03:38:30;;;;;;;13.07;4.38;;;;;;;;;;5093492;28;20052;-63
2021/09/01 03:41:16;;;;;;;12.50;4.57;;;;;;;;;;5096265;28;20511;-65
2021/09/01 03:44:01;;;;;;;14.18;5.60;;;;;;;;;;5096009;28;20052;-64
2021/09/01 03:46:46;;;;;;;11.10;4.85;;;;;;;;;;5096339;28;20488;-64
2021/09/01 03:49:31;;;;;;;15.57;4.65;;;;;;;;;;5096216;28;20126;-64
2021/09/01 03:52:17;;;;;;;16.90;5.95;;;;;;;;;;5095824;28;20126;-64
2021/09/01 03:55:02;;;;;;;15.73;5.85;;;;;;;;;;5095675;28;20490;-65
2021/09/01 03:57:48;;;;;;;15.18;5.60;;;;;;;;;;5095987;28;20052;-65
2021/09/01 04:00:33;;;;;;;18.63;6.05;;;;;;;;;;5095827;28;20052;-64
2021/09/01 04:03:18;;;;;;;15.23;4.63;;;;;;;;;;5096052;28;20410;-64
2021/09/01 04:06:05;;;;;;;15.88;5.25;;;;;;;;;;5095845;28;20040;-64
2021/09/01 04:08:50;;;;;;;13.10;5.45;;;;;;;;;;5095788;28;20122;-64
2021/09/01 04:11:35;;;;;;;17.42;5.22;;;;;;;;;;5095809;28;20052;-64
2021/09/01 04:14:21;;;;;;;13.85;5.65;;;;;;;;;;5095445;28;20048;-64
2021/09/01 04:17:06;;;;;;;11.43;4.30;;;;;;;;;;5095551;28;20506;-64
2021/09/01 04:19:51;;;;;;;12.07;4.53;;;;;;;;;;5095745;28;20048;-63
2021/09/01 04:22:36;;;;;;;19.10;6.00;;;;;;;;;;5095534;28;20056;-64
2021/09/01 04:25:22;;;;;;;15.10;5.40;;;;;;;;;;5095271;28;20055;-64
2021/09/01 04:28:07;;;;;;;10.95;4.88;;;;;;;;;;5095307;28;20541;-64
2021/09/01 04:30:52;;;;;;;18.15;5.60;;;;;;;;;;5095547;28;20048;-64
2021/09/01 04:33:37;;;;;;;15.25;5.25;;;;;;;;;;5094957;28;20048;-64
2021/09/01 04:36:23;;;;;;;12.23;5.30;;;;;;;;;;5095135;28;20126;-64
2021/09/01 04:39:08;;;;;;;12.98;4.20;;;;;;;;;;5095255;28;20052;-63
2021/09/01 04:41:53;;;;;;;14.40;5.57;;;;;;;;;;5095123;28;20040;-63
2021/09/01 04:44:39;;;;;;;13.65;5.28;;;;;;;;;;5094782;28;20087;-63
2021/09/01 04:47:24;;;;;;;17.05;5.18;;;;;;;;;;5095213;28;20048;-64
2021/09/01 04:50:09;;;;;;;18.00;5.00;;;;;;;;;;5094966;28;20048;-63
2021/09/01 04:52:55;;;;;;;18.23;5.45;;;;;;;;;;5094785;28;20056;-63
2021/09/01 04:55:40;;;;;;;13.00;5.75;;;;;;;;;;5094890;28;20047;-63
2021/09/01 04:58:26;;;;;;;13.70;5.00;;;;;;;;;;5094896;28;20085;-63
2021/09/01 05:01:11;;;;;;;19.02;5.50;;;;;;;;;;5094603;28;20505;-63
2021/09/01 05:03:56;;;;;;;13.85;4.55;;;;;;;;;;5094389;28;20541;-63
2021/09/01 05:06:42;;;;;;;11.77;4.88;;;;;;;;;;5094470;28;20406;-63
2021/09/01 05:09:27;;;;;;;16.13;5.07;;;;;;;;;;5094560;28;20098;-63
2021/09/01 05:12:12;;;;;;;15.20;5.22;;;;;;;;;;5094630;28;20077;-63
2021/09/01 05:14:58;;;;;;;14.13;4.72;;;;;;;;;;5094195;28;20173;-64
2021/09/01 05:17:43;;;;;;;10.07;4.63;;;;;;;;;;5094366;28;20048;-64
2021/09/01 05:20:28;;;;;;;11.55;5.03;;;;;;;;;;5094432;28;20079;-64
2021/09/01 05:23:14;;;;;;;18.05;4.70;;;;;;;;;;5094376;28;20056;-64
2021/09/01 05:26:00;;;;;;;14.27;5.32;;;;;;;;;;5079046;28;20565;-64
2021/09/01 05:28:46;;;;;;;12.65;4.43;;;;;;;;;;5094378;28;20054;-63
2021/09/01 05:31:32;;;;;;;10.50;4.90;;;;;;;;;;5079165;28;20469;-64
2021/09/01 05:34:18;;;;;;;17.08;4.90;;;;;;;;;;5093787;28;20074;-64
2021/09/01 05:37:03;;;;;;;26.10;5.60;;;;;;;;;;5079091;28;20052;-64
2021/09/01 05:39:49;;;;;;;21.45;5.50;;;;;;;;;;5078913;28;20052;-66
2021/09/01 05:42:35;;;;;;;13.85;5.53;;;;;;;;;;5093851;28;20127;-64
2021/09/01 05:45:20;;;;;;;11.68;4.63;;;;;;;;;;5093824;28;20048;-64
2021/09/01 05:48:05;;;;;;;12.77;5.00;;;;;;;;;;5078578;28;20052;-64
2021/09/01 05:50:51;;;;;;;41.53;6.97;;;;;;;;;;5078335;28;20048;-65
2021/09/01 05:53:36;;;;;;;22.73;6.13;;;;;;;;;;5090139;28;20050;-64
2021/09/01 05:56:23;;;;;;;32.58;5.80;;;;;;;;;;5077442;28;20048;-65
2021/09/01 05:59:09;;;;;;;20.60;6.07;;;;;;;;;;5078519;28;20047;-64
2021/09/01 06:01:57;;;;;;;16.63;5.07;;;;;;;;;;5092882;28;20569;-64
2021/09/01 06:04:44;;;;;;;11.13;4.57;;;;;;;;;;5093342;28;20047;-64
2021/09/01 06:07:29;;;;;;;11.20;4.50;;;;;;;;;;5093486;28;20131;-64
2021/09/01 06:10:14;;;;;;;84.68;8.70;;;;;;;;;;5078353;28;20410;-64
2021/09/01 06:13:03;;;;;;;28.33;5.90;;;;;;;;;;5078046;28;20502;-64
2021/09/01 06:15:48;;;;;;;19.27;5.70;;;;;;;;;;5077975;28;20052;-64
2021/09/01 06:18:34;;;;;;;17.00;4.65;;;;;;;;;;5093145;28;20526;-64
2021/09/01 06:21:19;;;;;;;15.45;5.22;;;;;;;;;;5093277;28;20051;-64
2021/09/01 06:24:05;;;;;;;14.05;4.75;;;;;;;;;;5092831;28;20494;-64
2021/09/01 06:26:50;;;;;;;13.18;4.95;;;;;;;;;;5093087;28;20083;-64
2021/09/01 06:29:37;;;;;;;11.38;4.82;;;;;;;;;;5089953;28;20502;-64
2021/09/01 06:32:22;;;;;;;14.63;5.25;;;;;;;;;;5072681;28;20449;-64
2021/09/01 06:35:07;;;;;;;12.77;4.75;;;;;;;;;;5072335;28;20565;-64
2021/09/01 06:37:52;;;;;;;16.60;4.72;;;;;;;;;;5072784;28;20049;-64
2021/09/01 06:40:38;;;;;;;14.80;4.70;;;;;;;;;;5072649;28;20060;-64
2021/09/01 06:43:23;;;;;;;13.77;5.20;;;;;;;;;;5072447;28;20052;-63
2021/09/01 06:46:08;;;;;;;13.65;4.80;;;;;;;;;;5072639;28;20060;-64
2021/09/01 06:48:54;;;;;;;14.80;5.28;;;;;;;;;;5071873;28;20048;-64
2021/09/01 06:51:39;;;;;;;10.32;4.88;;;;;;;;;;5071150;28;20517;-64
2021/09/01 06:54:24;;;;;;;12.60;5.00;;;;;;;;;;5072133;28;20052;-65
2021/09/01 06:57:10;;;;;;;12.77;4.82;;;;;;;;;;5072238;28;20048;-64
2021/09/01 06:59:55;;;;;;;14.40;5.55;;;;;;;;;;5091398;28;20119;-64
2021/09/01 07:02:40;;;;;;;11.88;4.70;;;;;;;;;;5092317;28;20047;-65
2021/09/01 07:05:31;;;;;;;15.95;5.10;;;;;;;;;;5084211;28;20047;-65
2021/09/01 07:08:17;;;;;;;17.35;5.05;;;;;;;;;;5091939;28;20063;-65
2021/09/01 07:11:02;;;;;;;15.77;6.75;;;;;;;;;;5092149;28;20048;-65
2021/09/01 07:13:48;;;;;;;14.57;4.90;;;;;;;;;;5082205;28;20048;-65
2021/09/01 07:16:33;;;;;;;9.88;4.57;;;;;;;;;;5071779;28;20506;-65
2021/09/01 07:19:18;;;;;;;13.68;4.78;;;;;;;;;;5056464;28;20049;-64
2021/09/01 07:22:04;;;;;;;18.00;4.78;;;;;;;;;;5071890;28;20119;-64
2021/09/01 07:24:49;;;;;;;23.80;6.00;;;;;;;;;;5071012;28;20067;-64
2021/09/01 07:27:34;;;;;;;10.18;4.28;;;;;;;;;;5071830;28;20048;-64
2021/09/01 07:30:20;;;;;;;11.95;5.18;;;;;;;;;;5071158;28;20049;-64
2021/09/01 07:33:05;;;;;;;14.68;5.18;;;;;;;;;;5071325;28;20056;-66
2021/09/01 07:35:50;;;;;;;10.85;4.90;;;;;;;;;;5071611;28;20380;-64
2021/09/01 07:38:36;;;;;;;10.75;4.65;;;;;;;;;;5071403;28;20044;-64
2021/09/01 07:41:21;;;;;;;13.48;4.85;;;;;;;;;;5071129;28;20048;-64
2021/09/01 07:44:06;;;;;;;12.25;4.63;;;;;;;;;;5071854;28;20056;-64
2021/09/01 07:46:52;;;;;;;14.30;5.40;;;;;;;;;;5070939;28;20048;-64
2021/09/01 07:49:37;;;;;;;23.60;5.63;;;;;;;;;;5086338;28;20052;-64
2021/09/01 07:52:22;;;;;;;13.88;4.80;;;;;;;;;;5091752;28;20052;-65
2021/09/01 07:55:08;;;;;;;15.63;4.80;;;;;;;;;;5075703;28;20044;-65
2021/09/01 07:57:53;;;;;;;13.38;3.90;;;;;;;;;;5071637;28;20119;-64
2021/09/01 08:00:38;;;;;;;13.95;4.72;;;;;;;;;;5071523;28;20115;-64
2021/09/01 08:03:24;;;;;;;10.30;3.75;;;;;;;;;;5071505;28;20123;-65
2021/09/01 08:06:10;;;;;;;9.27;4.55;;;;;;;;;;5071328;28;20052;-64
2021/09/01 08:08:55;;;;;;;11.50;4.60;;;;;;;;;;5085562;28;20052;-64
2021/09/01 08:11:40;;;;;;;15.65;4.32;;;;;;;;;;5091711;28;20126;-64
2021/09/01 08:14:26;;;;;;;19.33;5.15;;;;;;;;;;5091211;28;20049;-64
2021/09/01 08:17:13;;;;;;;10.63;4.05;;;;;;;;;;5091019;28;20123;-64
2021/09/01 08:19:58;;;;;;;9.13;3.80;;;;;;;;;;5091800;28;20052;-65
2021/09/01 08:22:44;;;;;;;13.35;4.32;;;;;;;;;;5091477;28;20502;-64
2021/09/01 08:25:29;;;;;;;17.38;4.40;;;;;;;;;;5094007;28;20048;-64
2021/09/01 08:28:15;;;;;;;12.80;4.53;;;;;;;;;;5095658;28;20052;-65
2021/09/01 08:31:00;;;;;;;13.25;4.10;;;;;;;;;;5088739;28;20048;-64
2021/09/01 08:33:45;;;;;;;9.18;4.05;;;;;;;;;;5074638;28;20068;-65
2021/09/01 08:36:30;;;;;;;11.48;4.05;;;;;;;;;;5074204;28;20053;-65
2021/09/01 08:39:16;;;;;;;23.83;6.22;;;;;;;;;;5073500;28;20510;-64
2021/09/01 08:42:01;;;;;;;12.48;4.35;;;;;;;;;;5074723;28;20056;-66
2021/09/01 08:44:46;;;;;;;11.73;4.50;;;;;;;;;;5074570;28;20049;-64
2021/09/01 08:47:32;;;;;;;13.80;4.40;;;;;;;;;;5074669;28;20048;-64
2021/09/01 08:50:17;;;;;;;11.00;3.97;;;;;;;;;;5076509;28;20522;-65
2021/09/01 08:53:02;;;;;;;13.15;4.30;;;;;;;;;;5105216;22;20513;-62
2021/09/01 08:55:50;;;;;;;11.02;3.88;;;;;;;;;;5093218;28;20048;-62
2021/09/01 08:58:35;;;;;;;20.98;3.97;;;;;;;;;;5094942;28;20432;-63
2021/09/01 09:01:39;;;;;;;9.07;3.55;;;;;;;;;;5095127;28;20273;-62
2021/09/01 09:04:29;;;;;;;14.70;4.75;;;;;;;;;;5094543;28;20044;-62
2021/09/01 09:07:16;;;;;;;12.30;4.07;;;;;;;;;;5094571;28;20056;-62
2021/09/01 09:10:01;;;;;;;10.73;3.90;;;;;;;;;;5095281;28;20048;-64
2021/09/01 09:12:46;;;;;;;69.63;8.32;;;;;;;;;;5094776;28;20048;-63
2021/09/01 09:15:31;;;;;;;14.90;4.25;;;;;;;;;;5079114;28;20655;-62
2021/09/01 09:18:26;;;;;;;11.93;4.25;;;;;;;;;;5094563;28;20047;-63
2021/09/01 09:21:18;;;;;;;14.07;4.82;;;;;;;;;;5094450;28;20048;-62
2021/09/01 09:24:20;;;;;;;10.98;3.60;;;;;;;;;;5094248;28;20048;-62
2021/09/01 09:27:06;;;;;;;11.85;3.78;;;;;;;;;;5094245;28;20561;-63
2021/09/01 09:29:51;;;;;;;17.25;4.32;;;;;;;;;;5094093;28;20052;-63
2021/09/01 09:32:37;;;;;;;11.82;3.83;;;;;;;;;;5094268;28;20048;-63
2021/09/01 09:35:22;;;;;;;10.35;3.65;;;;;;;;;;5093419;28;20052;-62
2021/09/01 09:38:07;;;;;;;12.02;4.25;;;;;;;;;;5093930;28;20048;-62
2021/09/01 09:40:53;;;;;;;14.60;4.78;;;;;;;;;;5094718;28;20052;-63
2021/09/01 09:43:38;;;;;;;7.70;3.55;;;;;;;;;;5094193;28;20056;-62
2021/09/01 09:46:23;;;;;;;10.68;3.22;;;;;;;;;;5093971;28;20420;-64
2021/09/01 09:49:09;;;;;;;12.88;4.15;;;;;;;;;;5094304;28;20071;-63
2021/09/01 09:51:54;;;;;;;10.13;4.07;;;;;;;;;;5094158;28;20048;-64
2021/09/01 09:54:39;;;;;;;8.90;3.45;;;;;;;;;;5093393;28;20055;-62
2021/09/01 09:57:24;;;;;;;12.45;3.58;;;;;;;;;;5078730;28;20048;-62
2021/09/01 10:00:10;;;;;;;12.52;3.75;;;;;;;;;;5078397;28;20557;-62
2021/09/01 10:02:56;;;;;;;14.32;4.05;;;;;;;;;;5093445;28;20509;-62
2021/09/01 10:05:41;;;;;;;10.82;4.20;;;;;;;;;;5093563;28;20101;-63
2021/09/01 10:08:27;;;;;;;9.18;3.40;;;;;;;;;;5078704;28;20538;-64
2021/09/01 10:11:12;;;;;;;11.35;3.75;;;;;;;;;;5093714;28;20047;-63
2021/09/01 10:13:57;;;;;;;10.63;4.07;;;;;;;;;;5093588;28;20510;-63
2021/09/01 10:16:44;;;;;;;8.93;3.88;;;;;;;;;;5093309;28;20052;-63
2021/09/01 10:19:30;;;;;;;10.73;3.40;;;;;;;;;;5093249;28;20048;-62
2021/09/01 10:22:15;;;;;;;9.40;3.72;;;;;;;;;;5077807;28;20044;-63
2021/09/01 10:25:00;;;;;;;7.13;3.20;;;;;;;;;;5093025;28;20059;-62
2021/09/01 10:27:45;;;;;;;10.50;4.20;;;;;;;;;;5093122;28;20051;-63
2021/09/01 10:30:31;;;;;;;11.35;3.38;;;;;;;;;;5093238;28;20056;-62
2021/09/01 10:33:35;;;;;;;9.85;3.60;;;;;;;;;;5093316;28;20059;-62
2021/09/01 10:36:26;;;;;;;11.68;4.03;;;;;;;;;;5092848;28;20126;-63
2021/09/01 10:39:14;;;;;;;12.15;4.00;;;;;;;;;;5093046;28;20052;-62
2021/09/01 10:41:59;;;;;;;9.82;3.92;;;;;;;;;;5092809;28;20101;-62
2021/09/01 10:44:48;;;;;;;9.38;3.47;;;;;;;;;;5092612;28;20044;-62
2021/09/01 10:47:52;;;;;;;16.70;3.95;;;;;;;;;;5093257;28;20509;-63
2021/09/01 10:50:41;;;;;;;9.00;3.58;;;;;;;;;;5093517;28;20056;-63
2021/09/01 10:53:27;;;;;;;12.45;4.05;;;;;;;;;;5093232;28;20068;-64
2021/09/01 10:56:15;;;;;;;11.85;3.35;;;;;;;;;;5093371;28;20044;-63
2021/09/01 10:59:00;;;;;;;9.73;3.33;;;;;;;;;;5092523;28;20501;-62
2021/09/01 11:02:14;;;;;;;12.85;3.40;;;;;;;;;;5092347;28;20048;-62
2021/09/01 11:05:07;;;;;;;9.93;3.72;;;;;;;;;;5085321;28;20052;-62
2021/09/01 11:07:56;;;;;;;9.70;3.42;;;;;;;;;;5092316;28;20055;-63
2021/09/01 11:10:54;;;;;;;12.95;3.97;;;;;;;;;;5092507;28;20052;-63
2021/09/01 11:13:40;;;;;;;7.40;3.20;;;;;;;;;;5092132;28;20440;-62
2021/09/01 11:16:25;;;;;;;10.73;3.78;;;;;;;;;;5092125;28;20044;-62
2021/09/01 11:19:11;;;;;;;10.10;3.00;;;;;;;;;;5092385;28;20052;-63
2021/09/01 11:21:59;;;;;;;9.02;3.70;;;;;;;;;;5092292;28;20079;-63
2021/09/01 11:24:47;;;;;;;10.95;3.45;;;;;;;;;;5077167;28;20056;-62
2021/09/01 11:27:33;;;;;;;9.88;3.75;;;;;;;;;;5092214;28;20048;-63
2021/09/01 11:30:18;;;;;;;10.98;4.03;;;;;;;;;;5092191;28;20068;-62
2021/09/01 11:33:03;;;;;;;12.13;4.38;;;;;;;;;;5091903;28;20048;-62
2021/09/01 11:35:49;;;;;;;9.25;3.88;;;;;;;;;;5091836;28;20056;-63
2021/09/01 11:38:34;;;;;;;9.23;3.97;;;;;;;;;;5091931;28;20082;-63
2021/09/01 11:41:23;;;;;;;12.25;3.45;;;;;;;;;;5091797;28;20464;-62
2021/09/01 11:44:09;;;;;;;12.88;4.18;;;;;;;;;;5091783;28;20048;-63
2021/09/01 11:46:54;;;;;;;9.10;3.70;;;;;;;;;;5092430;28;20052;-62
2021/09/01 11:49:39;;;;;;;8.60;3.70;;;;;;;;;;5092147;28;20060;-63
2021/09/01 11:52:27;;;;;;;7.28;3.15;;;;;;;;;;5092170;28;20056;-62
2021/09/01 11:55:12;;;;;;;8.55;3.83;;;;;;;;;;5091592;28;20048;-62
2021/09/01 11:58:03;;;;;;;10.35;3.88;;;;;;;;;;5091745;28;20048;-62
2021/09/01 12:00:49;;;;;;;11.13;3.90;;;;;;;;;;5080203;28;20048;-62
2021/09/01 12:03:34;;;;;;;9.05;3.13;;;;;;;;;;5095716;28;20445;-62
2021/09/01 12:06:20;;;;;;;9.18;3.55;;;;;;;;;;5095742;28;20506;-63
2021/09/01 12:09:05;;;;;;;9.77;3.35;;;;;;;;;;5095933;28;20127;-62
2021/09/01 12:11:52;;;;;;;8.95;3.22;;;;;;;;;;5095682;28;20417;-63
2021/09/01 12:14:37;;;;;;;5.10;2.78;;;;;;;;;;5095283;28;20438;-63
2021/09/01 12:17:23;;;;;;;11.13;3.58;;;;;;;;;;5095762;28;20127;-62
2021/09/01 12:20:12;;;;;;;8.25;2.72;;;;;;;;;;5095623;28;20055;-62
2021/09/01 12:22:57;;;;;;;8.23;3.47;;;;;;;;;;5095274;28;20393;-63
2021/09/01 12:25:43;;;;;;;9.43;2.75;;;;;;;;;;5095550;28;20123;-62
2021/09/01 12:28:28;;;;;;;7.13;2.55;;;;;;;;;;5095512;28;20052;-62
2021/09/01 12:31:23;;;;;;;7.05;2.72;;;;;;;;;;5095126;28;20044;-62
2021/09/01 12:34:09;;;;;;;9.30;2.90;;;;;;;;;;5095214;28;20064;-62
2021/09/01 12:36:58;;;;;;;5.75;2.65;;;;;;;;;;5095899;28;20048;-63
2021/09/01 12:39:53;;;;;;;7.97;2.83;;;;;;;;;;5096085;28;20119;-63
2021/09/01 12:42:40;;;;;;;7.57;2.90;;;;;;;;;;5095288;28;20094;-62
2021/09/01 12:45:25;;;;;;;8.70;3.58;;;;;;;;;;5094904;28;20051;-63
2021/09/01 12:48:18;;;;;;;11.65;3.22;;;;;;;;;;5095701;28;20048;-63
2021/09/01 12:51:04;;;;;;;7.55;2.95;;;;;;;;;;5095524;28;20060;-62
2021/09/01 12:53:50;;;;;;;8.85;3.10;;;;;;;;;;5095458;28;20056;-62
2021/09/01 12:56:35;;;;;;;5.60;2.50;;;;;;;;;;5076966;28;20047;-62
2021/09/01 12:59:20;;;;;;;8.90;2.88;;;;;;;;;;5094962;28;20052;-62
2021/09/01 13:02:06;;;;;;;6.07;2.72;;;;;;;;;;5095250;28;20054;-63
2021/09/01 13:04:51;;;;;;;10.52;2.50;;;;;;;;;;5094402;28;20501;-63
2021/09/01 13:07:36;;;;;;;6.07;2.67;;;;;;;;;;5094782;28;20052;-64
2021/09/01 13:10:22;;;;;;;7.47;2.67;;;;;;;;;;5093866;28;20055;-64
2021/09/01 13:13:08;;;;;;;8.68;2.88;;;;;;;;;;5094632;28;20052;-63
2021/09/01 13:15:53;;;;;;;8.55;2.92;;;;;;;;;;5094531;28;20048;-63
2021/09/01 13:18:41;;;;;;;8.13;3.30;;;;;;;;;;5094448;28;20048;-64
2021/09/01 13:21:26;;;;;;;7.90;3.00;;;;;;;;;;5094482;28;20131;-64
2021/09/01 13:24:11;;;;;;;9.73;3.00;;;;;;;;;;5093996;28;20506;-63
2021/09/01 13:26:56;;;;;;;9.70;3.15;;;;;;;;;;5094416;28;20138;-63
2021/09/01 13:29:42;;;;;;;6.97;2.90;;;;;;;;;;5094097;28;20505;-64
2021/09/01 13:32:27;;;;;;;9.23;3.28;;;;;;;;;;5094710;28;20087;-63
2021/09/01 13:35:12;;;;;;;9.75;3.38;;;;;;;;;;5094504;28;20044;-64
2021/09/01 13:37:58;;;;;;;11.65;3.33;;;;;;;;;;5095125;28;20052;-64
2021/09/01 13:40:43;;;;;;;8.25;2.95;;;;;;;;;;5094152;28;20114;-63
2021/09/01 13:43:28;;;;;;;9.57;3.83;;;;;;;;;;5093864;28;20083;-63
2021/09/01 13:46:13;;;;;;;7.95;3.83;;;;;;;;;;5078577;28;20513;-63
2021/09/01 13:48:59;;;;;;;7.63;3.33;;;;;;;;;;5093795;28;20494;-64
2021/09/01 13:51:44;;;;;;;8.63;2.90;;;;;;;;;;5093922;28;20126;-64
2021/09/01 13:54:30;;;;;;;10.00;3.28;;;;;;;;;;5093285;28;20492;-64
2021/09/01 13:57:17;;;;;;;11.98;3.88;;;;;;;;;;5078689;28;20118;-64
2021/09/01 14:00:06;;;;;;;7.70;3.75;;;;;;;;;;5093741;28;20044;-63
2021/09/01 14:02:59;;;;;;;11.65;4.15;;;;;;;;;;5093322;28;20101;-63
2021/09/01 14:05:44;;;;;;;9.20;3.58;;;;;;;;;;5093658;28;20047;-64
2021/09/01 14:08:30;;;;;;;13.00;3.30;;;;;;;;;;5094322;28;20460;-63
2021/09/01 14:11:15;;;;;;;6.57;2.92;;;;;;;;;;5093774;28;20056;-63
2021/09/01 14:14:00;;;;;;;8.00;3.53;;;;;;;;;;5093317;28;20060;-64
2021/09/01 14:16:46;;;;;;;7.13;3.40;;;;;;;;;;5094282;28;20056;-64
2021/09/01 14:19:31;;;;;;;10.18;3.33;;;;;;;;;;5094194;28;20052;-65
2021/09/01 14:22:16;;;;;;;11.00;3.70;;;;;;;;;;5093838;28;20445;-65
2021/09/01 14:25:02;;;;;;;9.85;3.70;;;;;;;;;;5093932;28;20123;-63
2021/09/01 14:27:47;;;;;;;10.02;2.83;;;;;;;;;;5093868;28;20056;-64
2021/09/01 14:30:32;;;;;;;5.70;2.75;;;;;;;;;;5093650;28;20060;-64
2021/09/01 14:33:18;;;;;;;8.00;3.00;;;;;;;;;;5093152;28;20051;-63
2021/09/01 14:36:03;;;;;;;5.38;2.90;;;;;;;;;;5092785;28;20502;-63
2021/09/01 14:38:48;;;;;;;8.07;3.28;;;;;;;;;;5093617;28;20044;-64
2021/09/01 14:41:34;;;;;;;10.30;3.22;;;;;;;;;;5093447;28;20506;-64
2021/09/01 14:44:19;;;;;;;9.20;3.00;;;;;;;;;;5093219;28;20418;-64
2021/09/01 14:47:06;;;;;;;7.68;3.25;;;;;;;;;;5092977;28;20056;-63
2021/09/01 14:49:51;;;;;;;9.40;3.15;;;;;;;;;;5092832;28;20052;-64
2021/09/01 14:52:36;;;;;;;7.70;3.55;;;;;;;;;;5107706;22;20045;-64
2021/09/01 14:55:21;;;;;;;8.70;3.08;;;;;;;;;;5092663;28;20093;-64
2021/09/01 14:58:07;;;;;;;8.13;2.95;;;;;;;;;;5092719;28;20055;-64
2021/09/01 15:00:53;;;;;;;9.60;3.47;;;;;;;;;;5092492;28;20052;-64
2021/09/01 15:03:40;;;;;;;7.30;3.40;;;;;;;;;;5092323;28;20098;-64
2021/09/01 15:06:25;;;;;;;5.85;3.42;;;;;;;;;;5092538;28;20387;-65
2021/09/01 15:09:10;;;;;;;11.20;2.80;;;;;;;;;;5092412;28;20498;-65
2021/09/01 15:11:55;;;;;;;6.10;2.83;;;;;;;;;;5092792;28;20051;-65
2021/09/01 15:14:41;;;;;;;4.85;2.63;;;;;;;;;;5092283;28;20257;-65
2021/09/01 15:17:26;;;;;;;9.80;3.35;;;;;;;;;;5092212;28;20044;-65
2021/09/01 15:20:12;;;;;;;8.40;3.13;;;;;;;;;;5092160;28;20048;-65
2021/09/01 15:22:57;;;;;;;7.13;3.08;;;;;;;;;;5092325;28;20048;-65
2021/09/01 15:25:43;;;;;;;11.00;3.08;;;;;;;;;;5092002;28;20056;-64
2021/09/01 15:28:28;;;;;;;11.38;2.92;;;;;;;;;;5092113;28;20048;-64
2021/09/01 15:31:13;;;;;;;6.53;3.10;;;;;;;;;;5092276;28;20044;-64
2021/09/01 15:33:59;;;;;;;6.20;2.67;;;;;;;;;;5091113;28;20080;-64
2021/09/01 15:36:44;;;;;;;7.28;2.95;;;;;;;;;;5091817;28;20047;-64
2021/09/01 15:39:29;;;;;;;7.07;3.10;;;;;;;;;;5092144;28;20044;-64
2021/09/01 15:42:17;;;;;;;10.65;3.53;;;;;;;;;;5092059;28;20390;-64
2021/09/01 15:45:02;;;;;;;4.63;2.55;;;;;;;;;;5091634;28;20127;-64
2021/09/01 15:47:51;;;;;;;10.05;3.30;;;;;;;;;;5092290;28;20052;-64
2021/09/01 15:50:37;;;;;;;7.00;2.40;;;;;;;;;;5091927;28;20048;-64
2021/09/01 15:53:22;;;;;;;6.97;3.05;;;;;;;;;;5091620;28;20052;-64
2021/09/01 15:56:08;;;;;;;6.10;2.58;;;;;;;;;;5092024;28;20044;-64
2021/09/01 15:58:53;;;;;;;7.15;3.30;;;;;;;;;;5091851;28;20044;-64
2021/09/01 16:01:39;;;;;;;5.35;2.78;;;;;;;;;;5076604;28;20413;-64
2021/09/01 16:04:24;;;;;;;7.50;2.72;;;;;;;;;;5091681;28;20060;-64
2021/09/01 16:07:10;;;;;;;6.75;2.97;;;;;;;;;;5092229;28;20052;-65
2021/09/01 16:09:55;;;;;;;6.32;3.30;;;;;;;;;;5076550;28;20059;-65
2021/09/01 16:12:40;;;;;;;6.60;2.85;;;;;;;;;;5091629;28;20514;-65
2021/09/01 16:15:26;;;;;;;5.85;2.63;;;;;;;;;;5076674;28;20048;-65
2021/09/01 16:18:21;;;;;;;11.07;3.17;;;;;;;;;;5059911;28;20052;-65
2021/09/01 16:21:10;;;;;;;10.57;2.70;;;;;;;;;;5056350;28;20049;-65
2021/09/01 16:23:55;;;;;;;6.57;2.88;;;;;;;;;;5071095;28;20490;-65